Time;durP1;ratioP1;P1;durP2;ratioP2;P2;SDS_P1;SDS_P2;PMS_P1;PMS_P2;Temp;Humidity;BMP_temperature;BMP_pressure;BME280_temperature;BME280_humidity;BME280_pressure;Samples;Min_cycle;Max_cycle;Signal;HPM_P1;HPM_P2
2022/08/03 00:01:02;;;;;;;4.18;3.88;;;;;;;25.39;66.00;99249.94;5111699;27;20226;-62
2022/08/03 00:03:31;;;;;;;5.35;3.58;;;;;;;25.28;66.40;99249.09;5111904;28;20702;-63
2022/08/03 00:05:58;;;;;;;3.85;3.65;;;;;;;25.19;66.99;99254.44;5111327;28;20230;-63
2022/08/03 00:08:25;;;;;;;4.40;4.00;;;;;;;25.14;67.43;99241.59;5111998;28;20655;-63
2022/08/03 00:10:52;;;;;;;4.05;3.65;;;;;;;25.12;67.66;99248.03;5111860;28;20201;-62
2022/08/03 00:13:19;;;;;;;3.95;3.50;;;;;;;25.02;68.29;99245.38;5111629;28;20687;-60
2022/08/03 00:15:46;;;;;;;5.07;4.28;;;;;;;25.07;68.14;99240.47;5107360;28;20199;-61
2022/08/03 00:18:13;;;;;;;4.50;3.70;;;;;;;25.00;68.84;99243.84;5090872;28;20744;-61
2022/08/03 00:20:41;;;;;;;3.85;3.20;;;;;;;24.91;69.57;99245.50;5090779;28;20199;-62
2022/08/03 00:23:08;;;;;;;5.53;3.70;;;;;;;24.90;69.62;99239.38;5091100;28;20650;-62
2022/08/03 00:25:35;;;;;;;4.13;3.80;;;;;;;24.88;69.95;99246.63;5090772;28;20195;-62
2022/08/03 00:28:03;;;;;;;4.07;3.67;;;;;;;24.81;70.41;99244.69;5090728;28;20277;-61
2022/08/03 00:30:30;;;;;;;4.00;3.80;;;;;;;24.79;70.55;99249.28;5091048;28;20203;-62
2022/08/03 00:32:57;;;;;;;3.97;3.40;;;;;;;24.74;70.63;99238.25;5090428;28;20625;-61
2022/08/03 00:35:24;;;;;;;4.95;3.50;;;;;;;24.65;69.88;99242.59;5090607;28;20252;-62
2022/08/03 00:37:52;;;;;;;3.33;3.13;;;;;;;24.59;69.84;99249.31;5090437;28;20211;-62
2022/08/03 00:40:20;;;;;;;5.15;3.63;;;;;;;24.49;70.26;99245.78;5090655;28;20652;-63
2022/08/03 00:42:52;;;;;;;3.65;3.10;;;;;;;24.39;70.85;99242.28;5090500;28;20222;-62
2022/08/03 00:45:20;;;;;;;3.40;3.30;;;;;;;24.36;70.83;99247.06;5090659;28;20759;-61
2022/08/03 00:47:47;;;;;;;6.07;3.65;;;;;;;24.29;71.33;99244.09;5090454;28;20218;-61
2022/08/03 00:50:14;;;;;;;3.80;3.60;;;;;;;24.23;71.51;99242.00;5090524;28;20200;-62
2022/08/03 00:52:42;;;;;;;5.88;3.85;;;;;;;24.19;72.09;99251.16;5090682;28;20257;-62
2022/08/03 00:55:11;;;;;;;6.05;4.03;;;;;;;24.16;72.43;99243.47;5090457;28;20591;-61
2022/08/03 00:57:38;;;;;;;4.45;3.67;;;;;;;24.12;72.88;99248.22;5090278;28;20195;-62
2022/08/03 01:00:07;;;;;;;4.82;3.90;;;;;;;24.00;73.30;99232.56;5090812;28;20196;-61
2022/08/03 01:02:34;;;;;;;4.03;3.83;;;;;;;24.01;73.36;99235.09;5090100;28;20225;-62
2022/08/03 01:05:01;;;;;;;4.50;4.10;;;;;;;24.00;74.29;99243.19;5090452;28;20583;-64
2022/08/03 01:07:41;;;;;;;3.75;3.55;;;;;;;24.01;74.39;99244.84;5090612;28;20286;-63
2022/08/03 01:10:20;;;;;;;7.88;3.88;;;;;;;23.92;75.11;99245.69;5090271;28;20672;-63
2022/08/03 01:12:57;;;;;;;4.47;4.18;;;;;;;23.84;75.61;99244.50;5090072;28;20205;-62
2022/08/03 01:15:36;;;;;;;4.60;4.20;;;;;;;23.77;76.40;99251.34;5090369;28;20842;-63
2022/08/03 01:18:10;;;;;;;4.63;4.32;;;;;;;23.69;77.02;99245.88;5089459;28;20199;-62
2022/08/03 01:20:40;;;;;;;5.40;4.55;;;;;;;23.66;77.13;99255.91;5090050;28;20199;-62
2022/08/03 01:23:38;;;;;;;4.20;4.00;;;;;;;23.61;77.63;99250.13;5089863;28;20759;-63
2022/08/03 01:26:38;;;;;;;4.53;4.22;;;;;;;23.52;77.56;99227.94;5069629;28;20195;-63
2022/08/03 01:29:25;;;;;;;4.93;4.53;;;;;;;23.60;77.80;99253.75;5086816;28;20195;-62
2022/08/03 01:32:02;;;;;;;4.32;4.03;;;;;;;23.49;78.18;99242.25;5089933;28;20365;-62
2022/08/03 01:34:32;;;;;;;6.18;4.60;;;;;;;23.57;78.39;99252.25;5089887;28;20285;-62
2022/08/03 01:37:03;;;;;;;6.25;4.22;;;;;;;23.65;78.06;99254.22;5089840;28;20202;-62
2022/08/03 01:39:33;;;;;;;5.20;4.72;;;;;;;23.57;78.24;99244.28;5089764;28;20286;-64
2022/08/03 01:42:05;;;;;;;6.60;4.40;;;;;;;23.60;78.08;99249.31;5089788;28;20227;-63
2022/08/03 01:44:37;;;;;;;4.60;4.20;;;;;;;23.50;78.60;99251.91;5090020;28;20199;-59
2022/08/03 01:47:07;;;;;;;4.57;4.13;;;;;;;23.45;78.88;99243.50;5089465;28;20205;-60
2022/08/03 01:49:39;;;;;;;6.00;4.90;;;;;;;23.45;78.84;99243.50;5089795;28;20277;-59
2022/08/03 01:52:07;;;;;;;5.15;4.75;;;;;;;23.51;78.55;99244.81;5089573;28;20213;-60
2022/08/03 01:54:36;;;;;;;5.50;4.75;;;;;;;23.49;78.45;99249.34;5089845;28;20281;-62
2022/08/03 01:57:04;;;;;;;7.32;4.75;;;;;;;23.50;78.33;99248.41;5089856;28;20576;-62
2022/08/03 01:59:34;;;;;;;5.63;4.97;;;;;;;23.58;77.79;99251.28;5089743;28;20694;-61
2022/08/03 02:02:03;;;;;;;5.40;4.93;;;;;;;23.74;76.21;99258.72;5089641;28;20222;-59
2022/08/03 02:04:32;;;;;;;5.00;4.60;;;;;;;23.79;76.39;99257.34;5089485;28;20206;-60
2022/08/03 02:07:01;;;;;;;5.35;4.80;;;;;;;23.86;75.51;99255.81;5089718;28;20676;-59
2022/08/03 02:09:30;;;;;;;7.80;4.80;;;;;;;23.88;74.94;99248.59;5102150;28;20205;-59
2022/08/03 02:11:59;;;;;;;8.27;5.15;;;;;;;23.93;75.13;99247.34;5100228;28;20226;-61
2022/08/03 02:14:28;;;;;;;5.43;4.88;;;;;;;23.93;74.85;99252.66;5105221;28;20278;-61
2022/08/03 02:16:57;;;;;;;7.07;5.22;;;;;;;23.88;74.84;99243.28;5101941;28;20190;-61
2022/08/03 02:19:26;;;;;;;6.88;5.53;;;;;;;23.94;74.43;99251.66;5108271;28;20201;-60
2022/08/03 02:21:54;;;;;;;7.07;5.00;;;;;;;23.78;75.46;99247.72;5096398;28;20215;-61
2022/08/03 02:24:21;;;;;;;4.93;4.65;;;;;;;23.70;76.09;99249.38;5097003;28;20199;-61
2022/08/03 02:26:51;;;;;;;5.18;4.70;;;;;;;23.69;76.14;99255.63;5099110;28;20187;-61
2022/08/03 02:29:21;;;;;;;4.78;4.28;;;;;;;23.68;76.37;99244.19;5098698;28;20207;-63
2022/08/03 02:31:50;;;;;;;4.53;4.22;;;;;;;23.71;76.22;99256.31;5100477;28;20288;-62
2022/08/03 02:34:20;;;;;;;4.72;4.50;;;;;;;23.66;76.04;99243.50;5101493;28;20228;-61
2022/08/03 02:36:51;;;;;;;7.38;4.53;;;;;;;23.71;75.98;99249.22;5101020;28;20199;-60
2022/08/03 02:39:25;;;;;;;4.60;4.18;;;;;;;23.73;75.14;99257.03;5101585;28;20202;-59
2022/08/03 02:42:00;;;;;;;4.68;4.28;;;;;;;23.66;74.79;99267.34;5101305;28;20272;-60
2022/08/03 02:44:30;;;;;;;4.93;4.53;;;;;;;23.66;73.75;99262.03;5100700;28;20194;-61
2022/08/03 02:47:02;;;;;;;4.30;4.00;;;;;;;23.60;73.79;99267.84;5101422;28;20664;-60
2022/08/03 02:49:30;;;;;;;4.65;4.18;;;;;;;23.56;74.18;99269.09;5101075;28;20206;-59
2022/08/03 02:51:59;;;;;;;3.90;3.60;;;;;;;23.60;74.06;99275.78;5101177;28;20699;-60
2022/08/03 02:54:28;;;;;;;4.15;3.85;;;;;;;23.60;74.11;99269.66;5102756;28;20691;-59
2022/08/03 02:56:58;;;;;;;8.30;3.70;;;;;;;23.66;73.52;99277.94;5101863;28;20198;-60
2022/08/03 02:59:26;;;;;;;4.32;3.85;;;;;;;23.65;73.07;99275.41;5100376;28;20195;-64
2022/08/03 03:01:55;;;;;;;4.65;3.50;;;;;;;23.68;72.75;99277.81;5096120;28;20791;-59
2022/08/03 03:04:23;;;;;;;3.70;3.47;;;;;;;23.74;72.02;99278.09;5092324;27;20223;-58
2022/08/03 03:06:51;;;;;;;3.83;3.50;;;;;;;23.73;71.52;99283.53;5090969;28;20222;-57
2022/08/03 03:09:19;;;;;;;5.13;3.78;;;;;;;23.73;71.35;99284.38;5090829;28;20625;-58
2022/08/03 03:11:49;;;;;;;3.63;3.30;;;;;;;23.66;71.34;99280.59;5090586;28;20306;-58
2022/08/03 03:14:17;;;;;;;3.75;3.45;;;;;;;23.61;71.68;99277.47;5090852;28;20245;-58
2022/08/03 03:16:47;;;;;;;4.13;3.67;;;;;;;23.63;71.16;99282.66;5091158;28;20234;-59
2022/08/03 03:19:15;;;;;;;3.33;3.03;;;;;;;23.62;70.96;99280.97;5090852;28;20626;-58
2022/08/03 03:21:44;;;;;;;4.20;3.90;;;;;;;23.56;71.22;99279.69;5091370;28;20218;-59
2022/08/03 03:24:11;;;;;;;4.18;3.90;;;;;;;23.42;71.78;99283.50;5090818;28;20324;-58
2022/08/03 03:26:38;;;;;;;4.82;3.20;;;;;;;23.41;71.65;99294.22;5090454;28;20223;-59
2022/08/03 03:29:08;;;;;;;3.17;2.97;;;;;;;23.50;70.63;99304.91;5090345;28;20225;-59
2022/08/03 03:31:36;;;;;;;3.70;3.10;;;;;;;23.50;70.26;99307.53;5099417;28;20232;-59
2022/08/03 03:34:03;;;;;;;3.58;3.30;;;;;;;23.42;70.04;99291.44;5110966;28;20219;-58
2022/08/03 03:36:30;;;;;;;3.28;2.97;;;;;;;23.35;70.24;99302.69;5110933;28;20671;-59
2022/08/03 03:38:58;;;;;;;3.50;3.20;;;;;;;23.26;70.59;99306.94;5109927;28;20711;-61
2022/08/03 03:41:25;;;;;;;3.50;3.30;;;;;;;23.33;71.10;99305.47;5099407;28;20852;-62
2022/08/03 03:43:52;;;;;;;3.22;2.97;;;;;;;23.38;70.93;99310.38;5099037;28;20258;-64
2022/08/03 03:46:20;;;;;;;7.90;3.30;;;;;;;23.34;70.31;99312.47;5099282;28;20198;-62
2022/08/03 03:48:47;;;;;;;3.08;2.85;;;;;;;23.29;70.02;99308.50;5099856;28;20633;-61
2022/08/03 03:51:15;;;;;;;3.50;3.30;;;;;;;23.26;70.55;99306.09;5101442;28;20190;-62
2022/08/03 03:53:54;;;;;;;3.55;3.08;;;;;;;23.38;70.04;99311.22;5100124;28;20187;-62
2022/08/03 03:56:21;;;;;;;3.97;3.40;;;;;;;23.42;69.64;99317.09;5100183;28;20590;-63
2022/08/03 03:58:48;;;;;;;4.68;3.45;;;;;;;23.51;69.38;99316.34;5098174;28;20651;-62
2022/08/03 04:01:15;;;;;;;9.07;3.78;;;;;;;23.57;68.81;99315.00;5096638;28;20209;-62
2022/08/03 04:03:44;;;;;;;5.55;3.80;;;;;;;23.61;68.92;99322.53;5099496;28;20527;-62
2022/08/03 04:11:44;;;;;;;3.50;3.30;;;;;;;23.60;68.99;99320.84;5059723;28;20211;-60
2022/08/03 04:14:14;;;;;;;4.45;4.13;;;;;;;23.68;68.63;99325.50;5099244;28;20208;-60
2022/08/03 04:16:45;;;;;;;4.93;4.10;;;;;;;23.64;68.54;99330.22;5098416;28;20195;-63
2022/08/03 04:19:17;;;;;;;7.95;5.55;;;;;;;23.69;68.83;99328.03;5103798;28;20218;-63
2022/08/03 04:21:50;;;;;;;4.38;4.07;;;;;;;23.72;68.79;99334.84;5100526;28;20648;-60
2022/08/03 04:24:20;;;;;;;6.38;4.53;;;;;;;23.80;68.71;99335.91;5101327;28;20224;-61
2022/08/03 04:26:50;;;;;;;6.43;4.43;;;;;;;23.71;69.51;99343.78;5099242;28;20203;-60
2022/08/03 04:29:19;;;;;;;4.15;3.78;;;;;;;23.61;69.88;99338.41;5101792;28;20204;-62
2022/08/03 04:31:48;;;;;;;18.92;9.18;;;;;;;23.63;71.00;99347.09;5106287;28;20191;-60
2022/08/03 04:34:17;;;;;;;12.48;5.43;;;;;;;23.68;69.25;99338.75;5104818;28;20190;-61
2022/08/03 04:36:49;;;;;;;4.82;4.50;;;;;;;23.72;68.47;99342.81;5111181;28;20585;-61
2022/08/03 04:39:24;;;;;;;5.93;4.72;;;;;;;23.78;68.77;99337.00;5111480;28;20214;-61
2022/08/03 04:41:53;;;;;;;4.63;4.00;;;;;;;23.72;68.67;99348.94;5110853;28;20229;-58
2022/08/03 04:44:23;;;;;;;6.03;4.95;;;;;;;23.61;69.10;99338.41;5110841;28;20312;-59
2022/08/03 04:46:51;;;;;;;4.57;4.20;;;;;;;23.76;68.96;99354.84;5092537;28;20193;-61
2022/08/03 04:49:20;;;;;;;6.95;5.97;;;;;;;23.91;68.85;99347.38;5089082;28;20199;-61
2022/08/03 04:51:48;;;;;;;4.45;4.05;;;;;;;24.02;68.91;99348.13;5088569;28;20195;-61
2022/08/03 04:54:16;;;;;;;4.70;4.20;;;;;;;24.16;67.86;99357.50;5088640;28;20198;-61
2022/08/03 04:56:44;;;;;;;4.85;4.40;;;;;;;24.29;67.13;99352.84;5089238;28;20226;-61
2022/08/03 04:59:11;;;;;;;6.07;4.75;;;;;;;24.17;67.09;99357.38;5089795;28;20587;-61
2022/08/03 05:01:40;;;;;;;10.45;4.25;;;;;;;24.21;66.93;99356.16;5089713;28;20196;-62
2022/08/03 05:04:06;;;;;;;9.15;8.07;;;;;;;24.20;66.35;99361.59;5090031;28;20225;-61
2022/08/03 05:06:35;;;;;;;10.70;8.15;;;;;;;24.17;66.88;99361.84;5090278;28;20226;-61
2022/08/03 05:09:03;;;;;;;5.63;5.25;;;;;;;24.17;66.68;99351.22;5089995;28;20203;-61
2022/08/03 05:11:30;;;;;;;7.78;4.97;;;;;;;24.30;66.95;99362.47;5090077;28;20706;-61
2022/08/03 05:13:56;;;;;;;11.43;7.05;;;;;;;24.32;66.45;99365.00;5089935;28;20199;-61
2022/08/03 05:16:24;;;;;;;7.40;4.80;;;;;;;24.27;66.33;99359.28;5089743;28;20195;-62
2022/08/03 05:18:51;;;;;;;11.30;7.15;;;;;;;24.31;66.29;99364.16;5090020;28;20192;-61
2022/08/03 05:21:18;;;;;;;8.25;5.55;;;;;;;24.33;65.81;99367.53;5089148;28;20306;-62
2022/08/03 05:23:46;;;;;;;8.18;4.82;;;;;;;24.40;65.78;99363.34;5088815;28;20227;-62
2022/08/03 05:26:13;;;;;;;7.10;6.38;;;;;;;24.39;66.12;99361.66;5088942;28;20710;-62
2022/08/03 05:28:40;;;;;;;6.95;4.32;;;;;;;24.42;65.97;99366.72;5089308;28;20223;-61
2022/08/03 05:31:07;;;;;;;6.75;6.13;;;;;;;24.59;65.11;99368.72;5089179;28;20261;-62
2022/08/03 05:33:34;;;;;;;8.52;5.18;;;;;;;24.78;64.48;99383.00;5089254;28;20225;-61
2022/08/03 05:36:01;;;;;;;8.57;6.75;;;;;;;24.90;64.01;99388.06;5088979;28;20223;-61
2022/08/03 05:38:28;;;;;;;5.57;4.60;;;;;;;25.04;63.62;99386.84;5088564;28;20230;-62
2022/08/03 05:40:56;;;;;;;18.10;8.40;;;;;;;25.27;63.31;99398.03;5088660;28;20725;-62
2022/08/03 05:43:23;;;;;;;6.45;4.95;;;;;;;25.50;62.44;99386.13;5094375;28;20228;-62
2022/08/03 05:45:50;;;;;;;4.78;4.07;;;;;;;25.79;60.93;99393.22;5106271;28;20610;-62
2022/08/03 05:48:17;;;;;;;5.35;4.95;;;;;;;25.86;60.80;99392.50;5109834;28;20248;-63
2022/08/03 05:50:44;;;;;;;7.80;4.70;;;;;;;26.02;60.19;99391.91;5109758;28;20195;-63
2022/08/03 05:53:11;;;;;;;4.63;3.70;;;;;;;26.24;59.43;99396.00;5110049;28;20594;-63
2022/08/03 05:55:38;;;;;;;7.80;3.63;;;;;;;26.53;58.06;99394.06;5109950;28;20207;-59
2022/08/03 05:58:06;;;;;;;7.13;4.20;;;;;;;26.35;58.19;99390.53;5106320;28;20191;-59
2022/08/03 06:00:33;;;;;;;4.20;3.53;;;;;;;26.25;58.64;99395.88;5090673;28;20201;-59
2022/08/03 06:03:01;;;;;;;5.07;4.15;;;;;;;26.16;59.02;99399.41;5089209;28;20215;-59
2022/08/03 06:05:28;;;;;;;6.18;3.50;;;;;;;26.02;59.18;99395.41;5092215;28;20584;-58
2022/08/03 06:07:55;;;;;;;4.05;3.78;;;;;;;25.99;58.87;99398.34;5093582;28;20682;-59
2022/08/03 06:10:22;;;;;;;7.05;3.90;;;;;;;25.96;59.08;99403.13;5093423;28;20202;-59
2022/08/03 06:12:49;;;;;;;4.80;3.67;;;;;;;26.51;57.61;99401.41;5093255;28;20199;-60
2022/08/03 06:15:18;;;;;;;6.55;4.15;;;;;;;26.59;56.98;99403.31;5093410;28;20195;-59
2022/08/03 06:17:47;;;;;;;9.43;5.03;;;;;;;26.70;56.82;99400.44;5093308;28;20199;-59
2022/08/03 06:20:15;;;;;;;4.55;4.07;;;;;;;26.72;57.02;99406.44;5093368;28;20203;-59
2022/08/03 06:22:42;;;;;;;10.18;4.13;;;;;;;26.73;56.17;99410.78;5093309;28;20310;-59
2022/08/03 06:25:10;;;;;;;6.88;4.10;;;;;;;26.72;56.11;99411.78;5093302;28;20206;-59
2022/08/03 06:27:39;;;;;;;4.90;3.60;;;;;;;26.70;57.21;99419.91;5093029;28;20203;-59
2022/08/03 06:30:09;;;;;;;9.45;4.75;;;;;;;26.68;57.19;99421.03;5092958;28;20195;-60
2022/08/03 06:32:37;;;;;;;5.68;4.15;;;;;;;26.64;57.18;99422.31;5092924;28;20199;-59
2022/08/03 06:35:06;;;;;;;4.20;3.67;;;;;;;26.73;56.64;99414.28;5100576;28;20200;-59
2022/08/03 06:37:42;;;;;;;6.50;4.25;;;;;;;26.83;56.08;99424.88;5098358;28;20254;-60
2022/08/03 06:40:10;;;;;;;4.35;3.95;;;;;;;26.86;55.76;99421.09;5101721;28;20202;-58
2022/08/03 06:42:37;;;;;;;5.53;3.35;;;;;;;26.93;55.33;99424.84;5102023;28;20226;-59
2022/08/03 06:45:05;;;;;;;4.47;3.70;;;;;;;26.95;54.54;99428.22;5103444;28;20253;-59
2022/08/03 06:47:32;;;;;;;7.00;3.92;;;;;;;26.92;54.61;99424.00;5102389;28;20226;-58
2022/08/03 06:50:00;;;;;;;6.35;3.45;;;;;;;26.97;54.71;99427.06;5101863;28;20190;-59
2022/08/03 06:52:27;;;;;;;4.68;3.63;;;;;;;27.20;54.50;99427.44;5097865;28;20623;-59
2022/08/03 06:54:54;;;;;;;7.05;4.25;;;;;;;27.44;53.57;99422.34;5092313;28;20195;-61
2022/08/03 06:57:21;;;;;;;8.38;4.30;;;;;;;27.65;52.73;99426.56;5092820;28;20217;-61
2022/08/03 06:59:48;;;;;;;6.15;3.75;;;;;;;27.93;51.47;99422.75;5091286;28;20209;-61
2022/08/03 07:02:15;;;;;;;3.53;3.33;;;;;;;28.21;49.53;99417.28;5092308;28;20205;-61
2022/08/03 07:04:42;;;;;;;5.15;4.22;;;;;;;29.15;47.77;99423.28;5092235;28;20864;-61
2022/08/03 07:07:10;;;;;;;6.25;3.50;;;;;;;31.08;43.08;99419.53;5092275;28;20199;-61
2022/08/03 07:09:37;;;;;;;3.95;3.55;;;;;;;32.62;38.66;99427.00;5092058;28;20209;-61
2022/08/03 07:12:05;;;;;;;5.95;3.78;;;;;;;33.26;37.13;99421.78;5092196;28;20298;-61
2022/08/03 07:14:32;;;;;;;4.07;3.80;;;;;;;33.07;37.32;99422.41;5092190;28;20604;-60
2022/08/03 07:16:59;;;;;;;8.05;3.83;;;;;;;32.85;37.13;99426.06;5091223;28;20199;-61
2022/08/03 07:19:26;;;;;;;3.20;3.00;;;;;;;32.31;38.90;99424.53;5091655;28;20199;-61
2022/08/03 07:21:53;;;;;;;3.78;3.50;;;;;;;31.88;39.55;99420.78;5092069;28;20614;-61
2022/08/03 07:24:21;;;;;;;3.75;3.45;;;;;;;31.97;38.88;99422.34;5091890;28;20219;-62
2022/08/03 07:26:48;;;;;;;5.18;4.15;;;;;;;32.20;38.40;99427.69;5091797;28;20199;-59
2022/08/03 07:29:15;;;;;;;3.63;3.10;;;;;;;32.25;38.12;99422.59;5091966;28;20318;-59
2022/08/03 07:31:42;;;;;;;8.90;7.28;;;;;;;33.21;37.47;99418.81;5092276;28;20195;-58
2022/08/03 07:34:09;;;;;;;5.60;3.50;;;;;;;34.66;35.01;99427.97;5101977;28;20306;-58
2022/08/03 07:36:36;;;;;;;6.00;3.53;;;;;;;35.56;33.51;99435.72;5100381;28;20191;-59
2022/08/03 07:39:03;;;;;;;4.60;4.20;;;;;;;35.70;33.23;99436.56;5102136;28;20195;-59
2022/08/03 07:41:31;;;;;;;4.13;3.70;;;;;;;35.66;33.44;99451.53;5101603;28;20231;-59
2022/08/03 07:43:58;;;;;;;4.68;3.55;;;;;;;36.12;32.32;99439.91;5100081;28;20215;-59
2022/08/03 07:46:25;;;;;;;9.63;4.03;;;;;;;36.46;31.98;99442.31;5101478;28;20187;-58
2022/08/03 07:48:52;;;;;;;4.88;4.20;;;;;;;36.85;31.87;99443.22;5102116;28;20201;-59
2022/08/03 07:51:19;;;;;;;4.93;3.90;;;;;;;37.54;30.76;99445.94;5099910;27;20195;-62
2022/08/03 07:53:46;;;;;;;4.13;3.70;;;;;;;37.50;30.80;99455.56;5101556;28;20193;-61
2022/08/03 07:56:13;;;;;;;6.85;3.70;;;;;;;37.88;30.64;99449.25;5101903;28;20252;-62
2022/08/03 07:58:41;;;;;;;4.20;3.92;;;;;;;37.86;30.59;99449.47;5100071;28;20203;-61
2022/08/03 08:01:08;;;;;;;10.43;4.20;;;;;;;38.06;29.89;99438.41;5100789;28;20280;-61
2022/08/03 08:03:35;;;;;;;8.43;4.10;;;;;;;38.48;29.44;99453.88;5102064;28;20214;-60
2022/08/03 08:06:02;;;;;;;5.68;3.80;;;;;;;38.53;29.11;99455.91;5100259;28;20198;-58
2022/08/03 08:08:30;;;;;;;4.43;4.13;;;;;;;38.76;29.22;99452.50;5100665;28;20272;-58
2022/08/03 08:10:57;;;;;;;4.85;4.45;;;;;;;39.04;28.73;99451.97;5101809;28;20190;-59
2022/08/03 08:13:24;;;;;;;5.25;4.00;;;;;;;38.52;29.44;99454.22;5100426;28;20719;-59
2022/08/03 08:15:53;;;;;;;5.15;4.68;;;;;;;38.14;30.21;99452.56;5100057;28;20190;-58
2022/08/03 08:18:20;;;;;;;4.50;4.10;;;;;;;38.12;30.41;99449.25;5101989;28;20660;-58
2022/08/03 08:20:46;;;;;;;4.57;4.18;;;;;;;37.73;30.21;99441.44;5100511;28;20197;-58
2022/08/03 08:23:14;;;;;;;4.50;4.03;;;;;;;37.64;31.28;99461.75;5099807;28;20225;-58
2022/08/03 08:25:40;;;;;;;4.10;3.80;;;;;;;37.26;31.02;99451.75;5099716;28;20190;-58
2022/08/03 08:28:07;;;;;;;5.18;4.47;;;;;;;36.75;32.26;99448.28;5100414;28;20198;-59
2022/08/03 08:30:35;;;;;;;4.50;4.05;;;;;;;37.12;32.15;99439.34;5098910;28;20190;-59
2022/08/03 08:33:03;;;;;;;4.32;4.13;;;;;;;37.42;31.70;99434.16;5101076;28;20199;-59
2022/08/03 08:35:30;;;;;;;6.00;4.28;;;;;;;37.44;31.32;99438.31;5101449;28;20182;-58
2022/08/03 08:38:00;;;;;;;4.90;4.70;;;;;;;37.28;31.35;99452.38;5099926;28;20201;-62
2022/08/03 08:40:28;;;;;;;4.50;4.20;;;;;;;36.99;31.85;99434.84;5099299;28;20222;-62
2022/08/03 08:42:55;;;;;;;4.50;4.18;;;;;;;36.83;32.24;99440.75;5099368;28;20207;-59
2022/08/03 08:45:22;;;;;;;4.18;3.85;;;;;;;36.47;32.30;99443.13;5100369;28;20597;-59
2022/08/03 08:47:50;;;;;;;4.60;4.25;;;;;;;36.41;32.51;99436.72;5101544;28;20698;-58
2022/08/03 08:50:20;;;;;;;5.38;4.90;;;;;;;36.75;32.27;99432.88;5099602;28;20191;-58
2022/08/03 08:52:48;;;;;;;4.85;4.63;;;;;;;36.25;32.74;99445.28;5099368;28;20676;-62
2022/08/03 08:55:20;;;;;;;5.03;4.63;;;;;;;36.18;32.34;99437.16;5099154;28;20188;-62
2022/08/03 08:57:50;;;;;;;5.10;4.70;;;;;;;36.11;32.79;99440.94;5099061;28;20286;-62
2022/08/03 09:00:18;;;;;;;7.18;4.28;;;;;;;36.02;33.05;99435.72;5099567;28;20196;-62
2022/08/03 09:02:45;;;;;;;4.78;4.40;;;;;;;36.10;32.85;99432.00;5099236;28;20197;-62
2022/08/03 09:05:13;;;;;;;4.20;4.00;;;;;;;35.94;33.08;99427.03;5100760;28;20221;-63
2022/08/03 09:07:43;;;;;;;6.00;4.28;;;;;;;36.23;33.03;99434.66;5099618;28;20191;-62
2022/08/03 09:10:11;;;;;;;4.47;4.28;;;;;;;36.27;33.36;99435.09;5098885;28;20195;-59
2022/08/03 09:12:40;;;;;;;5.20;4.75;;;;;;;36.36;32.88;99436.50;5101650;28;20232;-59
2022/08/03 09:15:21;;;;;;;4.93;4.63;;;;;;;36.19;32.74;99435.28;5110178;28;20194;-59
2022/08/03 09:17:49;;;;;;;10.00;5.20;;;;;;;36.65;32.25;99427.91;5110389;28;20285;-62
2022/08/03 09:20:16;;;;;;;5.20;4.80;;;;;;;36.41;32.14;99427.78;5110072;28;20198;-62
2022/08/03 09:23:03;;;;;;;5.97;4.65;;;;;;;35.88;33.17;99419.78;5110183;28;20199;-61
2022/08/03 09:25:31;;;;;;;6.47;5.88;;;;;;;35.94;33.42;99417.03;5110267;28;20683;-61
2022/08/03 09:28:07;;;;;;;4.95;4.50;;;;;;;35.72;33.24;99422.84;5110119;28;20199;-59
2022/08/03 09:30:35;;;;;;;8.20;5.28;;;;;;;35.64;33.72;99416.63;5110051;28;20202;-60
2022/08/03 09:33:04;;;;;;;4.95;4.65;;;;;;;36.13;33.09;99418.03;5109882;28;20285;-58
2022/08/03 09:35:31;;;;;;;10.00;8.77;;;;;;;37.00;31.89;99417.56;5110024;28;20281;-59
2022/08/03 09:38:13;;;;;;;4.35;4.10;;;;;;;37.30;31.12;99417.78;5110125;28;20209;-59
2022/08/03 09:40:40;;;;;;;6.30;4.43;;;;;;;37.15;31.17;99419.13;5107962;28;20249;-59
2022/08/03 09:43:08;;;;;;;5.50;5.15;;;;;;;36.79;31.88;99417.06;5089056;28;20628;-60
2022/08/03 09:45:35;;;;;;;4.43;4.18;;;;;;;36.57;31.89;99417.31;5089205;28;20721;-59
2022/08/03 09:48:22;;;;;;;4.72;4.20;;;;;;;36.81;31.39;99404.13;5093779;28;20629;-62
2022/08/03 09:50:50;;;;;;;6.03;4.40;;;;;;;36.76;31.61;99398.53;5098498;28;20211;-58
2022/08/03 09:53:20;;;;;;;4.18;3.97;;;;;;;36.73;31.45;99400.63;5106230;28;20665;-58
2022/08/03 09:55:54;;;;;;;5.53;4.63;;;;;;;36.84;31.47;99392.88;5108256;28;20707;-59
2022/08/03 09:58:21;;;;;;;5.32;4.88;;;;;;;37.30;30.72;99385.31;5099507;28;20237;-59
2022/08/03 10:01:00;;;;;;;5.05;4.65;;;;;;;36.61;31.74;99390.66;5093204;28;20368;-60
2022/08/03 10:03:28;;;;;;;5.75;5.30;;;;;;;36.31;32.25;99391.22;5088405;28;20191;-61
2022/08/03 10:05:55;;;;;;;4.53;4.15;;;;;;;36.19;32.97;99386.66;5088824;28;20223;-60
2022/08/03 10:08:24;;;;;;;4.18;3.97;;;;;;;34.80;34.50;99381.19;5089298;28;20206;-59
2022/08/03 10:10:53;;;;;;;4.30;4.10;;;;;;;34.06;35.92;99372.13;5097201;28;20704;-59
2022/08/03 10:13:22;;;;;;;4.15;3.85;;;;;;;33.71;35.75;99379.31;5109005;28;20591;-59
2022/08/03 10:15:50;;;;;;;3.95;3.63;;;;;;;33.46;36.63;99374.38;5101958;28;20207;-60
2022/08/03 10:18:17;;;;;;;4.18;3.88;;;;;;;33.31;37.40;99375.47;5089389;28;20599;-60
2022/08/03 10:20:49;;;;;;;6.40;4.30;;;;;;;33.24;38.12;99367.34;5102683;28;20199;-61
2022/08/03 10:23:18;;;;;;;5.07;4.68;;;;;;;32.94;38.52;99368.47;5108899;28;20197;-60
2022/08/03 10:25:49;;;;;;;4.93;4.63;;;;;;;32.83;39.25;99367.13;5107113;28;20226;-60
2022/08/03 10:28:19;;;;;;;5.00;4.60;;;;;;;32.74;39.36;99368.25;5108806;28;20672;-61
2022/08/03 10:30:50;;;;;;;5.15;4.15;;;;;;;32.53;39.61;99368.19;5108102;28;20582;-60
2022/08/03 10:33:19;;;;;;;5.75;4.45;;;;;;;32.53;39.56;99363.63;5109161;28;20281;-61
2022/08/03 10:35:50;;;;;;;4.75;4.45;;;;;;;32.36;40.91;99362.19;5109262;28;20281;-60
2022/08/03 10:38:22;;;;;;;6.10;5.28;;;;;;;32.33;41.50;99366.09;5109672;28;20195;-61
2022/08/03 10:40:54;;;;;;;5.75;5.22;;;;;;;32.75;40.46;99361.84;5109068;28;20261;-61
2022/08/03 10:43:25;;;;;;;6.05;5.65;;;;;;;32.77;40.52;99359.81;5109312;28;20623;-61
2022/08/03 10:45:53;;;;;;;5.55;5.10;;;;;;;32.58;40.89;99346.97;5109232;28;20311;-60
2022/08/03 10:48:20;;;;;;;5.07;4.78;;;;;;;32.54;41.00;99356.41;5109353;28;20835;-61
2022/08/03 10:50:49;;;;;;;5.18;4.78;;;;;;;32.30;42.01;99353.03;5109283;28;20199;-61
2022/08/03 10:53:16;;;;;;;4.93;4.53;;;;;;;32.33;41.59;99357.19;5113130;28;20677;-61
2022/08/03 10:58:50;;;;;;;8.55;7.95;;;;;;;32.44;41.45;99354.84;5113187;28;20223;-60
2022/08/03 11:01:19;;;;;;;8.00;6.30;;;;;;;32.43;40.52;99347.81;5113072;28;20611;-63
2022/08/03 11:04:18;;;;;;;5.72;5.32;;;;;;;32.50;40.74;99349.75;5094613;28;20305;-63
2022/08/03 11:06:47;;;;;;;5.47;5.00;;;;;;;32.61;40.94;99341.22;5107791;28;20285;-63
2022/08/03 11:09:18;;;;;;;5.35;4.93;;;;;;;32.37;40.26;99310.97;5113138;28;20205;-63
2022/08/03 11:11:47;;;;;;;5.63;4.95;;;;;;;32.52;40.73;99328.88;5112778;28;20632;-62
2022/08/03 11:14:18;;;;;;;5.10;4.80;;;;;;;32.50;40.92;99330.97;5112572;28;20195;-63
2022/08/03 11:16:47;;;;;;;5.15;4.85;;;;;;;32.42;40.78;99319.28;5096110;28;20195;-62
2022/08/03 11:19:16;;;;;;;7.00;5.22;;;;;;;32.64;40.06;99322.00;5096202;28;20195;-63
2022/08/03 11:21:57;;;;;;;5.35;4.82;;;;;;;32.66;40.40;99325.34;5109748;28;20191;-59
2022/08/03 11:25:01;;;;;;;5.20;4.80;;;;;;;32.59;40.89;99319.06;5112490;28;20199;-59
2022/08/03 11:27:30;;;;;;;4.28;4.00;;;;;;;32.62;39.84;99329.44;5112456;28;20247;-58
2022/08/03 11:30:02;;;;;;;6.03;5.10;;;;;;;32.66;39.54;99318.09;5101434;28;20202;-58
2022/08/03 11:32:51;;;;;;;5.20;4.90;;;;;;;32.47;39.69;99316.03;5103102;28;20575;-59
2022/08/03 11:35:19;;;;;;;6.25;5.85;;;;;;;32.38;39.71;99303.75;5101576;28;20319;-60
2022/08/03 11:38:11;;;;;;;4.97;4.68;;;;;;;32.29;39.88;99303.00;5100392;28;20203;-59
2022/08/03 11:40:43;;;;;;;5.97;4.72;;;;;;;32.26;39.36;99300.72;5092636;28;20202;-58
2022/08/03 11:43:44;;;;;;;4.93;4.53;;;;;;;32.22;39.73;99304.78;5099448;28;20187;-58
2022/08/03 11:46:17;;;;;;;4.75;4.50;;;;;;;32.18;40.18;99306.16;5103765;28;20222;-62
2022/08/03 11:48:46;;;;;;;5.40;4.90;;;;;;;32.02;40.50;99301.81;5102428;28;20582;-59
2022/08/03 11:51:24;;;;;;;4.88;4.47;;;;;;;32.03;40.29;99297.28;5109143;28;20627;-59
2022/08/03 11:53:56;;;;;;;5.68;4.40;;;;;;;32.09;39.90;99296.53;5106090;28;20206;-58